Flight Track Log - Related Links

Times and Time Zones

All times are in EST time to prevent confusion due to time zone crossing. See the ASA123 flight status page for this flight to view local times or setup timezone preferences in your user account.

Time Position Orientation Groundspeed Altitude Reporting Facility
EST Latitude Longitude Course Direction KTS MPH feet Rate Location/Type
Fri 04:51:22 PM 47.4372 -122.3092 174° South 154 177 1,300  Level Seattle Center
Fri 04:51:31 PM 47.4317 -122.3083 174° South 144 166 1,900 2,250 Climbing Seattle Center
Fri 04:51:46 PM 47.4214 -122.3083 180° South 151 174 2,200 1,770 Climbing Seattle Center
Fri 04:52:32 PM 47.3822 -122.3094 181° South 178 205 3,700 1,963 Climbing Seattle Center
Fri 04:53:33 PM 47.3231 -122.3319 194° South 233 268 5,700 2,410 Climbing Seattle Center
Fri 04:54:34 PM 47.3097 -122.4331 259° West 254 292 8,600 2,852 Climbing Seattle Center
Fri 04:55:35 PM 47.3428 -122.5244 298° West 251 289 11,500 1,918 Climbing Seattle Center
Fri 04:56:36 PM 47.4089 -122.6103 319° Northwest 323 372 12,500 1,770 Climbing Seattle Center
Fri 04:57:37 PM 47.4836 -122.7028 320° Northwest 351 404 15,100 2,656 Climbing Seattle Center
Fri 04:58:38 PM 47.5761 -122.7861 329° Northwest 366 421 17,900 2,410 Climbing Seattle Center
Fri 04:59:39 PM 47.6631 -122.8653 328° Northwest 371 427 20,000 2,016 Climbing Seattle Center
Fri 05:00:40 PM 47.7567 -122.9475 329° Northwest 385 443 22,000 1,918 Climbing Seattle Center
Fri 05:01:41 PM 47.8517 -123.0303 330° Northwest 394 453 23,900 1,736 Climbing Seattle Center
Fri 05:02:41 PM 47.9492 -123.1169 329° Northwest 404 465 25,500 1,537 Climbing Seattle Center
Fri 05:03:42 PM 48.0478 -123.2050 329° Northwest 410 472 27,000 1,475 Climbing Seattle Center
Fri 05:04:43 PM 48.1394 -123.2850 330° Northwest 420 483 28,500 1,672 Climbing Seattle Center
Fri 05:05:44 PM 48.2369 -123.3744 329° Northwest 415 478 30,400 2,066 Climbing Seattle Center
Fri 05:06:45 PM 48.3519 -123.4786 329° Northwest 404 465 32,700 2,015 Climbing Seattle Center
Fri 05:07:58 PM 48.4500 -123.5667 329° Northwest 390 449 34,900 1,489 Climbing Vancouver Center
Fri 05:08:58 PM 48.5333 -123.6667 322° Northwest 380 437 36,000 550 Climbing Vancouver Center
Fri 05:09:58 PM 48.6167 -123.7500 327° Northwest 380 437 36,000  Level Vancouver Center
Fri 05:10:58 PM 48.7167 -123.8167 336° Northwest 380 437 36,000  Level Vancouver Center
Fri 05:11:58 PM 48.8000 -123.9000 327° Northwest 380 437 36,000  Level Vancouver Center
Fri 05:12:58 PM 48.9000 -124.0000 327° Northwest 380 437 36,000  Level Vancouver Center
Fri 05:13:58 PM 48.9833 -124.0833 327° Northwest 380 437 36,000  Level Vancouver Center
Fri 05:14:58 PM 49.0667 -124.1500 332° Northwest 380 437 36,000  Level Vancouver Center
Fri 05:15:58 PM 49.1667 -124.2667 323° Northwest 380 437 36,000  Level Vancouver Center
Fri 05:16:58 PM 49.2500 -124.3333 332° Northwest 380 437 36,000  Level Vancouver Center
Fri 05:17:58 PM 49.3333 -124.4167 327° Northwest 380 437 36,000  Level Vancouver Center
Fri 05:18:58 PM 49.4333 -124.5000 332° Northwest 380 437 36,000  Level Vancouver Center
Fri 05:19:58 PM 49.5167 -124.6000 322° Northwest 380 437 36,000  Level Vancouver Center
Fri 05:20:58 PM 49.6167 -124.6833 332° Northwest 380 437 36,000  Level Vancouver Center
Fri 05:21:58 PM 49.7000 -124.7500 333° Northwest 380 437 36,000  Level Vancouver Center
Fri 05:22:58 PM 49.7833 -124.8333 327° Northwest 380 437 36,000  Level Vancouver Center
Fri 05:23:58 PM 49.8833 -124.9333 327° Northwest 380 437 36,000  Level Vancouver Center
Fri 05:24:58 PM 49.9667 -125.0167 327° Northwest 380 437 36,000  Level Vancouver Center
Fri 05:25:58 PM 50.0667 -125.1000 332° Northwest 380 437 36,000  Level Vancouver Center
Fri 05:26:58 PM 50.1667 -125.2000 327° Northwest 390 449 36,000  Level Vancouver Center
Fri 05:27:58 PM 50.2500 -125.2833 327° Northwest 380 437 36,000  Level Vancouver Center
Fri 05:28:58 PM 50.3333 -125.3667 327° Northwest 380 437 36,000  Level Vancouver Center
Fri 05:29:58 PM 50.4333 -125.4833 323° Northwest 380 437 36,000  Level Vancouver Center
Fri 05:30:58 PM 50.5167 -125.5500 333° Northwest 380 437 36,000  Level Vancouver Center
Fri 05:31:58 PM 50.6167 -125.6333 332° Northwest 380 437 36,000  Level Vancouver Center
Fri 05:32:58 PM 50.6833 -125.7500 312° West 380 437 36,000  Level Vancouver Center
Fri 05:33:58 PM 50.7833 -125.8333 332° Northwest 380 437 36,000  Level Vancouver Center
Fri 05:34:58 PM 50.8667 -125.9167 328° Northwest 390 449 36,000  Level Vancouver Center
Fri 05:35:58 PM 50.9667 -126.0333 324° Northwest 380 437 36,000  Level Vancouver Center
Fri 05:36:58 PM 51.0500 -126.1167 328° Northwest 380 437 36,000  Level Vancouver Center
Fri 05:37:58 PM 51.1500 -126.2167 328° Northwest 390 449 36,000  Level Vancouver Center
Fri 05:38:58 PM 51.2333 -126.3000 328° Northwest 390 449 36,000  Level Vancouver Center
Fri 05:39:58 PM 51.3167 -126.3833 328° Northwest 390 449 36,000  Level Vancouver Center
Fri 05:40:58 PM 51.4167 -126.4833 328° Northwest 380 437 36,000  Level Vancouver Center
Fri 05:41:58 PM 51.5000 -126.5833 323° Northwest 380 437 36,000  Level Vancouver Center
Fri 05:42:58 PM 51.5833 -126.6667 328° Northwest 390 449 36,000  Level Vancouver Center
Fri 05:43:58 PM 51.6667 -126.7667 323° Northwest 390 449 36,000  Level Vancouver Center
Fri 05:44:58 PM 51.7667 -126.8667 328° Northwest 390 449 36,000  Level Vancouver Center
Fri 05:45:58 PM 51.8500 -126.9667 323° Northwest 390 449 36,000  Level Vancouver Center
Fri 05:46:58 PM 51.9500 -127.0833 324° Northwest 400 460 36,000  Level Vancouver Center
Fri 05:47:58 PM 52.0500 -127.1667 333° Northwest 400 460 36,000  Level Vancouver Center
Fri 05:48:58 PM 52.1500 -127.2833 324° Northwest 390 449 36,000  Level Vancouver Center
Fri 05:49:58 PM 52.2167 -127.3667 323° Northwest 390 449 36,000  Level Vancouver Center
Fri 05:50:58 PM 52.3000 -127.4500 329° Northwest 390 449 36,000  Level Vancouver Center
Fri 05:51:58 PM 52.4000 -127.5667 325° Northwest 390 449 36,000  Level Vancouver Center
Fri 05:52:58 PM 52.4833 -127.6667 324° Northwest 390 449 36,000  Level Vancouver Center
Fri 05:55:58 PM 52.7500 -127.9667 326° Northwest 380 437 36,000  Level Vancouver Center
Fri 05:56:58 PM 52.8500 -128.0833 325° Northwest 390 449 36,000  Level Vancouver Center
Fri 05:57:58 PM 52.9333 -128.1667 329° Northwest 390 449 36,000  Level Vancouver Center
Fri 05:58:58 PM 53.0333 -128.2667 329° Northwest 410 472 36,000  Level Vancouver Center
Fri 06:00:57 PM 53.2167 -128.4500 329° Northwest 410 472 36,000  Level Anchorage Center
Fri 06:01:58 PM 53.3000 -128.5667 320° Northwest 400 460 36,000  Level Anchorage Center
Fri 06:02:58 PM 53.3833 -128.6667 324° Northwest 400 460 36,000  Level Anchorage Center
Fri 06:03:58 PM 53.4833 -128.7833 325° Northwest 400 460 36,000  Level Anchorage Center
Fri 06:03:58 PM 53.4833 -128.7833 325° Northwest 390 449 36,000  Level Vancouver Center
Fri 06:04:58 PM 53.5667 -128.9167 316° Northwest 390 449 36,000  Level Vancouver Center
Fri 06:05:58 PM 53.6667 -129.0167 329° Northwest 400 460 36,000  Level Vancouver Center
Fri 06:06:58 PM 53.7500 -129.1333 320° Northwest 390 449 36,000  Level Vancouver Center
Fri 06:07:58 PM 53.8500 -129.2333 329° Northwest 390 449 36,000  Level Vancouver Center
Fri 06:08:58 PM 53.9333 -129.3500 321° Northwest 400 460 36,000  Level Vancouver Center
Fri 06:09:58 PM 54.0167 -129.4500 325° Northwest 400 460 36,000  Level Vancouver Center
Fri 06:10:58 PM 54.1167 -129.5833 322° Northwest 400 460 36,000  Level Vancouver Center
Fri 06:11:58 PM 54.2000 -129.6833 325° Northwest 400 460 36,000  Level Vancouver Center
Fri 06:12:58 PM 54.2833 -129.8000 321° Northwest 410 472 36,000  Level Vancouver Center
Fri 06:13:58 PM 54.3833 -129.9000 330° Northwest 410 472 36,000  Level Vancouver Center
Fri 06:14:58 PM 54.4667 -130.0333 317° Northwest 410 472 36,000  Level Vancouver Center
Fri 06:15:58 PM 54.5667 -130.1333 330° Northwest 410 472 36,000  Level Vancouver Center
Fri 06:16:58 PM 54.6667 -130.2667 322° Northwest 410 472 36,000  Level Vancouver Center
Fri 06:17:58 PM 54.7500 -130.4000 317° Northwest 410 472 36,000  Level Vancouver Center
Fri 06:18:58 PM 54.8333 -130.5000 325° Northwest 410 472 36,000  Level Vancouver Center
Fri 06:20:03 PM 54.9333 -130.5833 334° Northwest 410 472 36,000 -524 Level Anchorage Center
Fri 06:21:04 PM 55.0333 -130.7000 326° Northwest 410 472 34,900 -992 Descending Anchorage Center
Fri 06:22:04 PM 55.1167 -130.8167 321° Northwest 410 472 34,000 -950 Descending Anchorage Center
Fri 06:23:04 PM 55.2167 -130.9333 326° Northwest 410 472 33,000 -992 Descending Anchorage Center
Fri 06:24:05 PM 55.3000 -131.0667 318° Northwest 420 483 32,000 -992 Descending Anchorage Center
Fri 06:25:05 PM 55.4000 -131.1833 326° Northwest 420 483 31,000 -1,000 Descending Anchorage Center
Fri 06:26:05 PM 55.5000 -131.3167 323° Northwest 430 495 30,000 -942 Descending Anchorage Center
Fri 06:27:06 PM 55.5833 -131.4500 318° Northwest 430 495 29,100 -992 Descending Anchorage Center
Fri 06:28:06 PM 55.6833 -131.5833 323° Northwest 440 506 28,000 -545 Descending Anchorage Center
Fri 06:29:07 PM 55.7833 -131.7167 323° Northwest 440 506 28,000  Level Anchorage Center
Fri 06:30:06 PM 55.8667 -131.8333 322° Northwest 440 506 28,000  Level Anchorage Center
Fri 06:31:58 PM 56.0667 -132.1000 323° Northwest 430 495 28,000  Level Vancouver Center
Fri 06:33:23 PM 56.1833 -132.2500 324° Northwest 420 483 28,000  Level Anchorage Center
Fri 06:34:23 PM 56.2667 -132.3833 318° Northwest 430 495 28,000 -50 Level Anchorage Center
Fri 06:35:23 PM 56.3667 -132.5167 324° Northwest 430 495 27,900 -545 Descending Anchorage Center
Fri 06:36:24 PM 56.4667 -132.6500 324° Northwest 430 495 26,900 -942 Descending Anchorage Center
Fri 06:37:24 PM 56.5500 -132.7833 319° Northwest 440 506 26,000 -450 Descending Anchorage Center
Fri 06:38:24 PM 56.6500 -132.9167 324° Northwest 430 495 26,000  Level Anchorage Center
Fri 06:39:25 PM 56.7500 -133.0500 324° Northwest 420 483 26,000  Level Anchorage Center
Fri 06:40:25 PM 56.8333 -133.2000 315° West 430 495 26,000  Level Anchorage Center
Fri 06:41:25 PM 56.9167 -133.3333 319° Northwest 420 483 26,000  Level Anchorage Center
Fri 06:42:26 PM 57.0167 -133.4667 324° Northwest 420 483 26,000  Level Anchorage Center
Fri 06:43:26 PM 57.1000 -133.6000 319° Northwest 420 483 26,000  Level Anchorage Center
Fri 06:44:26 PM 57.2000 -133.7333 324° Northwest 420 483 26,000  Level Anchorage Center
Fri 06:45:27 PM 57.2833 -133.8667 319° Northwest 420 483 26,000  Level Anchorage Center
Fri 06:46:27 PM 57.3667 -134.0000 319° Northwest 420 483 26,000  Level Anchorage Center
Fri 06:47:28 PM 57.4667 -134.1333 324° Northwest 420 483 26,000 50 Level Anchorage Center
Fri 06:48:28 PM 57.5500 -134.2667 319° Northwest 410 472 26,100 1,450 Climbing Anchorage Center
Fri 06:49:28 PM 57.6333 -134.4000 319° Northwest 410 472 28,900 2,430 Climbing Anchorage Center
Fri 06:50:29 PM 57.7167 -134.5333 320° Northwest 390 449 31,000 1,785 Climbing Anchorage Center
Fri 06:51:29 PM 57.8000 -134.6667 320° Northwest 400 460 32,500 1,250 Climbing Anchorage Center
Fri 06:52:29 PM 57.9000 -134.8167 321° Northwest 410 472 33,500 1,041 Climbing Anchorage Center
Fri 06:53:30 PM 57.9833 -134.9500 320° Northwest 420 483 34,600 1,190 Climbing Anchorage Center
Fri 06:54:30 PM 58.0667 -135.0833 320° Northwest 400 460 35,900 1,300 Climbing Anchorage Center
Fri 06:55:30 PM 58.1500 -135.2167 320° Northwest 390 449 37,200 1,041 Climbing Anchorage Center
Fri 06:56:31 PM 58.2667 -135.3500 329° Northwest 400 460 38,000 397 Climbing Anchorage Center
Fri 06:57:31 PM 58.3667 -135.4500 332° Northwest 410 472 38,000  Level Anchorage Center
Fri 06:58:31 PM 58.4667 -135.5667 329° Northwest 420 483 38,000  Level Anchorage Center
Fri 06:59:32 PM 58.5667 -135.6667 332° Northwest 420 483 38,000  Level Anchorage Center
Fri 07:00:32 PM 58.6667 -135.7833 329° Northwest 420 483 38,000  Level Anchorage Center
Fri 07:02:32 PM 58.8833 -136.0167 331° Northwest 420 483 38,000  Level Anchorage Center
Fri 07:03:33 PM 58.9667 -136.1000 333° Northwest 420 483 38,000  Level Anchorage Center
Fri 07:04:33 PM 59.0667 -136.2167 329° Northwest 420 483 38,000  Level Anchorage Center
Fri 07:05:33 PM 59.1667 -136.3333 329° Northwest 420 483 38,000  Level Anchorage Center
Fri 07:06:34 PM 59.2667 -136.4500 329° Northwest 420 483 38,000  Level Anchorage Center
Fri 07:07:34 PM 59.3667 -136.5667 329° Northwest 420 483 38,000  Level Anchorage Center
Fri 07:08:34 PM 59.4667 -136.6833 329° Northwest 420 483 38,000  Level Anchorage Center
Fri 07:09:35 PM 59.5667 -136.8000 329° Northwest 420 483 38,000  Level Anchorage Center
Fri 07:10:35 PM 59.6833 -136.9167 333° Northwest 430 495 38,000  Level Anchorage Center
Fri 07:11:36 PM 59.7833 -137.0333 330° Northwest 430 495 38,000  Level Anchorage Center
Fri 07:12:36 PM 59.8833 -137.1667 326° Northwest 420 483 38,000  Level Anchorage Center
Fri 07:13:36 PM 59.9833 -137.2833 330° Northwest 430 495 38,000  Level Anchorage Center
Fri 07:14:36 PM 60.0833 -137.4000 330° Northwest 420 483 38,000  Level Anchorage Center
Fri 07:15:37 PM 60.1833 -137.5167 330° Northwest 420 483 38,000  Level Anchorage Center
Fri 07:16:37 PM 60.2833 -137.6500 327° Northwest 420 483 38,000  Level Anchorage Center
Fri 07:17:38 PM 60.3833 -137.7667 330° Northwest 410 472 38,000  Level Anchorage Center
Fri 07:18:38 PM 60.5000 -137.9167 328° Northwest 410 472 38,000  Level Anchorage Center
Fri 07:19:38 PM 60.6000 -138.0333 330° Northwest 410 472 38,000  Level Anchorage Center
Fri 07:20:39 PM 60.7000 -138.1500 330° Northwest 410 472 38,000  Level Anchorage Center
Fri 07:21:39 PM 60.7833 -138.2833 322° Northwest 420 483 38,000  Level Anchorage Center
Fri 07:22:39 PM 60.8833 -138.4000 330° Northwest 420 483 38,000  Level Anchorage Center
Fri 07:23:40 PM 61.0000 -138.5333 331° Northwest 430 495 38,000  Level Anchorage Center
Fri 07:24:40 PM 61.1000 -138.6667 327° Northwest 430 495 38,000  Level Anchorage Center
Fri 07:25:40 PM 61.1833 -138.7833 326° Northwest 420 483 38,000  Level Anchorage Center
Fri 07:26:41 PM 61.2833 -138.9167 327° Northwest 410 472 38,000  Level Anchorage Center
Fri 07:27:41 PM 61.3833 -139.0500 327° Northwest 400 460 38,000  Level Anchorage Center
Fri 07:28:41 PM 61.4667 -139.2000 319° Northwest 410 472 38,000  Level Anchorage Center
Fri 07:29:42 PM 61.5500 -139.3500 319° Northwest 410 472 38,000  Level Anchorage Center
Fri 07:30:42 PM 61.6167 -139.4833 316° Northwest 410 472 38,000  Level Anchorage Center
Fri 07:51:39 PM 63.3500 -143.1333 306° West 460 529 38,000  Level Anchorage Center
Fri 07:52:00 PM 63.2873 -142.9308 306° West  Level FlightAware Approximate
Fri 07:52:39 PM 63.4167 -143.3333 307° West 410 472 38,000  Level Anchorage Center
Fri 07:53:00 PM 63.3514 -143.1266 306° West  Level FlightAware Approximate
Fri 07:53:40 PM 63.4833 -143.5000 312° West 420 483 38,000  Level Anchorage Center
Fri 07:54:00 PM 63.4151 -143.3232 306° West  Level FlightAware Approximate
Fri 07:54:40 PM 63.5667 -143.7667 305° West 430 495 38,000  Level Anchorage Center
Fri 07:55:00 PM 63.4787 -143.5207 306° West  Level FlightAware Approximate
Fri 07:55:40 PM 63.6333 -143.9833 305° West 430 495 38,000  Level Anchorage Center
Fri 07:56:00 PM 63.5419 -143.7191 306° West  Level FlightAware Approximate
Fri 07:56:40 PM 63.7000 -144.2000 305° West 420 483 38,000  Level Anchorage Center
Fri 07:57:41 PM 63.7667 -144.4000 307° West 420 483 38,000  Level Anchorage Center
Fri 07:58:41 PM 63.8333 -144.6333 303° West 430 495 38,000 -100 Level Anchorage Center
Fri 07:59:41 PM 63.8833 -144.8167 302° West 430 495 37,800 -645 Descending Anchorage Center
Fri 08:00:42 PM 63.9667 -145.0833 306° West 410 472 36,700 -1,190 Descending Anchorage Center
Fri 08:01:42 PM 64.0333 -145.3000 305° West 420 483 35,400 -2,450 Descending Anchorage Center
Fri 08:02:42 PM 64.1000 -145.5333 303° West 420 483 31,800 -3,521 Descending Anchorage Center
Fri 08:03:43 PM 64.1667 -145.7500 305° West 430 495 28,300 -3,074 Descending Anchorage Center
Fri 08:04:43 PM 64.2333 -145.9833 303° West 420 483 25,600 -2,650 Descending Anchorage Center
Fri 08:05:43 PM 64.3000 -146.1833 308° West 400 460 23,000 -2,600 Descending Anchorage Center
Fri 08:07:00 PM 64.3723 -146.4583 303° West  Level FlightAware Approximate
Fri 08:14:00 PM 64.5922 -147.9622 12° North  Level FlightAware Approximate
Fri 08:15:00 PM 64.6977 -147.9043 10° North  Level FlightAware Approximate
Fri 08:16:00 PM 64.8000 -147.8500 16° North  Level FlightAware Approximate
Fri 08:17:00 PM 64.8151 -147.8564 16° North  Level Estimated
Fri 08:18:00 PM 64.8151 -147.8564 16° North  Level Estimated
Fri 08:19:00 PM 64.8151 -147.8564 16° North  Level Estimated
Fri 08:20:00 PM 64.8151 -147.8564 16° North  Level Estimated
Fri 08:21:00 PM 64.8151 -147.8564 16° North  Level Estimated
Fri 08:22:00 PM 64.8151 -147.8564 16° North  Level Estimated
Fri 08:23:00 PM 64.8151 -147.8564 16° North  Level Estimated
Fri 08:24:00 PM 64.8151 -147.8564 16° North  Level Estimated

Login

Don't have an account? Register now (free) for customized features, flight alerts, and more!